sensor_id;sensor_type;location;lat;lon;timestamp;P1;durP1;ratioP1;P2;durP2;ratioP2
8675;SDS011;4375;52.486;13.424;2022-10-16T00:00:41;19.77;;;3.03;;
8675;SDS011;4375;52.486;13.424;2022-10-16T00:03:11;14.00;;;2.67;;
8675;SDS011;4375;52.486;13.424;2022-10-16T00:05:43;18.30;;;3.80;;
8675;SDS011;4375;52.486;13.424;2022-10-16T00:08:10;15.37;;;3.40;;
8675;SDS011;4375;52.486;13.424;2022-10-16T00:10:37;15.80;;;3.10;;
8675;SDS011;4375;52.486;13.424;2022-10-16T00:13:03;14.83;;;2.97;;
8675;SDS011;4375;52.486;13.424;2022-10-16T00:15:29;14.40;;;2.67;;
8675;SDS011;4375;52.486;13.424;2022-10-16T00:17:55;15.60;;;3.00;;
8675;SDS011;4375;52.486;13.424;2022-10-16T00:20:21;16.83;;;3.00;;
8675;SDS011;4375;52.486;13.424;2022-10-16T00:22:46;15.20;;;2.87;;
8675;SDS011;4375;52.486;13.424;2022-10-16T00:25:12;14.70;;;2.80;;
8675;SDS011;4375;52.486;13.424;2022-10-16T00:27:38;14.67;;;2.80;;
8675;SDS011;4375;52.486;13.424;2022-10-16T00:30:03;15.63;;;3.43;;
8675;SDS011;4375;52.486;13.424;2022-10-16T00:32:30;18.40;;;3.37;;
8675;SDS011;4375;52.486;13.424;2022-10-16T00:34:55;15.93;;;2.80;;
8675;SDS011;4375;52.486;13.424;2022-10-16T00:37:21;14.77;;;2.90;;
8675;SDS011;4375;52.486;13.424;2022-10-16T00:39:46;14.80;;;2.67;;
8675;SDS011;4375;52.486;13.424;2022-10-16T00:42:16;14.73;;;2.60;;
8675;SDS011;4375;52.486;13.424;2022-10-16T00:44:47;14.83;;;3.10;;
8675;SDS011;4375;52.486;13.424;2022-10-16T00:47:24;15.00;;;2.57;;
8675;SDS011;4375;52.486;13.424;2022-10-16T00:52:55;14.40;;;2.40;;
8675;SDS011;4375;52.486;13.424;2022-10-16T00:55:22;13.80;;;2.40;;
8675;SDS011;4375;52.486;13.424;2022-10-16T00:57:49;14.77;;;2.67;;
8675;SDS011;4375;52.486;13.424;2022-10-16T01:00:17;16.53;;;3.03;;
8675;SDS011;4375;52.486;13.424;2022-10-16T01:02:53;14.70;;;2.50;;
8675;SDS011;4375;52.486;13.424;2022-10-16T01:05:23;14.47;;;2.50;;
8675;SDS011;4375;52.486;13.424;2022-10-16T01:08:18;15.30;;;2.80;;
8675;SDS011;4375;52.486;13.424;2022-10-16T01:11:00;17.33;;;2.70;;
8675;SDS011;4375;52.486;13.424;2022-10-16T01:13:39;13.90;;;2.57;;
8675;SDS011;4375;52.486;13.424;2022-10-16T01:16:53;16.23;;;2.53;;
8675;SDS011;4375;52.486;13.424;2022-10-16T01:19:05;15.50;;;2.30;;
8675;SDS011;4375;52.486;13.424;2022-10-16T01:22:09;14.70;;;2.50;;
8675;SDS011;4375;52.486;13.424;2022-10-16T01:24:39;14.30;;;2.40;;
8675;SDS011;4375;52.486;13.424;2022-10-16T01:32:45;21.90;;;3.50;;
8675;SDS011;4375;52.486;13.424;2022-10-16T01:35:33;15.40;;;2.80;;
8675;SDS011;4375;52.486;13.424;2022-10-16T01:38:08;14.20;;;2.27;;
8675;SDS011;4375;52.486;13.424;2022-10-16T01:40:49;14.30;;;2.30;;
8675;SDS011;4375;52.486;13.424;2022-10-16T01:43:25;14.67;;;2.70;;
8675;SDS011;4375;52.486;13.424;2022-10-16T01:45:56;17.30;;;2.70;;
8675;SDS011;4375;52.486;13.424;2022-10-16T01:48:24;14.80;;;2.30;;
8675;SDS011;4375;52.486;13.424;2022-10-16T01:51:22;14.67;;;2.87;;
8675;SDS011;4375;52.486;13.424;2022-10-16T01:53:43;14.10;;;2.30;;
8675;SDS011;4375;52.486;13.424;2022-10-16T01:56:15;14.13;;;2.50;;
8675;SDS011;4375;52.486;13.424;2022-10-16T01:58:53;14.77;;;2.20;;
8675;SDS011;4375;52.486;13.424;2022-10-16T02:01:26;13.87;;;2.10;;
8675;SDS011;4375;52.486;13.424;2022-10-16T02:03:55;14.27;;;2.20;;
8675;SDS011;4375;52.486;13.424;2022-10-16T02:06:26;15.00;;;2.37;;
8675;SDS011;4375;52.486;13.424;2022-10-16T02:08:53;16.80;;;2.63;;
8675;SDS011;4375;52.486;13.424;2022-10-16T02:11:18;15.90;;;2.33;;
8675;SDS011;4375;52.486;13.424;2022-10-16T02:13:55;15.50;;;3.17;;
8675;SDS011;4375;52.486;13.424;2022-10-16T02:16:32;14.00;;;2.07;;
8675;SDS011;4375;52.486;13.424;2022-10-16T02:19:00;14.53;;;2.33;;
8675;SDS011;4375;52.486;13.424;2022-10-16T02:21:26;15.30;;;2.87;;
8675;SDS011;4375;52.486;13.424;2022-10-16T02:29:16;16.63;;;3.43;;
8675;SDS011;4375;52.486;13.424;2022-10-16T02:31:46;15.30;;;2.70;;
8675;SDS011;4375;52.486;13.424;2022-10-16T02:34:16;15.33;;;2.73;;
8675;SDS011;4375;52.486;13.424;2022-10-16T02:36:43;15.00;;;2.20;;
8675;SDS011;4375;52.486;13.424;2022-10-16T02:39:11;13.77;;;2.30;;
8675;SDS011;4375;52.486;13.424;2022-10-16T02:41:37;16.87;;;2.40;;
8675;SDS011;4375;52.486;13.424;2022-10-16T02:44:03;13.47;;;1.97;;
8675;SDS011;4375;52.486;13.424;2022-10-16T02:46:29;13.97;;;2.10;;
8675;SDS011;4375;52.486;13.424;2022-10-16T02:48:54;15.23;;;2.33;;
8675;SDS011;4375;52.486;13.424;2022-10-16T02:51:20;14.93;;;2.57;;
8675;SDS011;4375;52.486;13.424;2022-10-16T02:53:46;13.67;;;1.93;;
8675;SDS011;4375;52.486;13.424;2022-10-16T02:56:11;16.30;;;2.40;;
8675;SDS011;4375;52.486;13.424;2022-10-16T02:58:37;13.73;;;1.97;;
8675;SDS011;4375;52.486;13.424;2022-10-16T03:01:02;13.93;;;2.30;;
8675;SDS011;4375;52.486;13.424;2022-10-16T03:03:28;19.20;;;2.33;;
8675;SDS011;4375;52.486;13.424;2022-10-16T03:05:54;13.57;;;2.10;;
8675;SDS011;4375;52.486;13.424;2022-10-16T03:08:19;13.63;;;2.00;;
8675;SDS011;4375;52.486;13.424;2022-10-16T03:10:48;14.40;;;2.00;;
8675;SDS011;4375;52.486;13.424;2022-10-16T03:13:14;14.57;;;2.20;;
8675;SDS011;4375;52.486;13.424;2022-10-16T03:15:40;14.20;;;2.30;;
8675;SDS011;4375;52.486;13.424;2022-10-16T03:18:05;13.30;;;1.90;;
8675;SDS011;4375;52.486;13.424;2022-10-16T03:20:31;13.60;;;2.10;;
8675;SDS011;4375;52.486;13.424;2022-10-16T03:22:56;16.37;;;2.40;;
8675;SDS011;4375;52.486;13.424;2022-10-16T03:25:22;15.77;;;2.30;;
8675;SDS011;4375;52.486;13.424;2022-10-16T03:27:48;13.70;;;2.30;;
8675;SDS011;4375;52.486;13.424;2022-10-16T03:30:13;14.40;;;2.17;;
8675;SDS011;4375;52.486;13.424;2022-10-16T03:32:40;13.77;;;2.10;;
8675;SDS011;4375;52.486;13.424;2022-10-16T03:35:05;14.63;;;2.33;;
8675;SDS011;4375;52.486;13.424;2022-10-16T03:37:31;15.33;;;2.53;;
8675;SDS011;4375;52.486;13.424;2022-10-16T03:39:57;15.40;;;2.20;;
8675;SDS011;4375;52.486;13.424;2022-10-16T03:42:23;13.93;;;2.40;;
8675;SDS011;4375;52.486;13.424;2022-10-16T03:44:49;14.50;;;2.43;;
8675;SDS011;4375;52.486;13.424;2022-10-16T03:47:15;14.57;;;2.23;;
8675;SDS011;4375;52.486;13.424;2022-10-16T03:49:41;14.10;;;2.20;;
8675;SDS011;4375;52.486;13.424;2022-10-16T03:52:06;15.03;;;2.37;;
8675;SDS011;4375;52.486;13.424;2022-10-16T03:54:32;14.33;;;2.30;;
8675;SDS011;4375;52.486;13.424;2022-10-16T03:56:57;15.47;;;2.67;;
8675;SDS011;4375;52.486;13.424;2022-10-16T03:59:23;14.30;;;2.40;;
8675;SDS011;4375;52.486;13.424;2022-10-16T04:01:48;13.83;;;2.23;;
8675;SDS011;4375;52.486;13.424;2022-10-16T04:04:14;14.00;;;2.37;;
8675;SDS011;4375;52.486;13.424;2022-10-16T04:06:40;14.50;;;2.90;;
8675;SDS011;4375;52.486;13.424;2022-10-16T04:09:05;16.13;;;2.50;;
8675;SDS011;4375;52.486;13.424;2022-10-16T04:11:31;18.10;;;2.57;;
8675;SDS011;4375;52.486;13.424;2022-10-16T04:13:57;13.97;;;2.27;;
8675;SDS011;4375;52.486;13.424;2022-10-16T04:16:22;14.77;;;2.27;;
8675;SDS011;4375;52.486;13.424;2022-10-16T04:18:48;14.20;;;2.50;;
8675;SDS011;4375;52.486;13.424;2022-10-16T04:21:13;15.00;;;2.40;;
8675;SDS011;4375;52.486;13.424;2022-10-16T04:23:42;14.20;;;2.20;;
8675;SDS011;4375;52.486;13.424;2022-10-16T04:26:07;14.47;;;2.60;;
8675;SDS011;4375;52.486;13.424;2022-10-16T04:28:33;13.90;;;2.30;;
8675;SDS011;4375;52.486;13.424;2022-10-16T04:30:59;14.47;;;2.20;;
8675;SDS011;4375;52.486;13.424;2022-10-16T04:33:25;17.23;;;2.43;;
8675;SDS011;4375;52.486;13.424;2022-10-16T04:35:57;15.20;;;2.97;;
8675;SDS011;4375;52.486;13.424;2022-10-16T04:38:23;17.67;;;3.17;;
8675;SDS011;4375;52.486;13.424;2022-10-16T04:40:49;14.40;;;2.50;;
8675;SDS011;4375;52.486;13.424;2022-10-16T04:43:15;15.73;;;2.93;;
8675;SDS011;4375;52.486;13.424;2022-10-16T04:45:41;14.20;;;2.80;;
8675;SDS011;4375;52.486;13.424;2022-10-16T04:48:06;14.17;;;2.63;;
8675;SDS011;4375;52.486;13.424;2022-10-16T04:50:32;14.77;;;2.57;;
8675;SDS011;4375;52.486;13.424;2022-10-16T04:52:57;17.70;;;3.17;;
8675;SDS011;4375;52.486;13.424;2022-10-16T04:55:23;14.83;;;2.83;;
8675;SDS011;4375;52.486;13.424;2022-10-16T04:57:49;15.17;;;3.37;;
8675;SDS011;4375;52.486;13.424;2022-10-16T05:00:15;16.90;;;3.27;;
8675;SDS011;4375;52.486;13.424;2022-10-16T05:02:40;15.40;;;3.30;;
8675;SDS011;4375;52.486;13.424;2022-10-16T05:05:06;15.50;;;3.17;;
8675;SDS011;4375;52.486;13.424;2022-10-16T05:07:32;16.10;;;3.23;;
8675;SDS011;4375;52.486;13.424;2022-10-16T05:09:57;15.17;;;2.90;;
8675;SDS011;4375;52.486;13.424;2022-10-16T05:12:23;15.80;;;3.40;;
8675;SDS011;4375;52.486;13.424;2022-10-16T05:14:49;15.60;;;3.10;;
8675;SDS011;4375;52.486;13.424;2022-10-16T05:17:14;15.20;;;3.43;;
8675;SDS011;4375;52.486;13.424;2022-10-16T05:19:40;16.30;;;3.20;;
8675;SDS011;4375;52.486;13.424;2022-10-16T05:22:06;16.47;;;3.30;;
8675;SDS011;4375;52.486;13.424;2022-10-16T05:24:31;14.40;;;2.80;;
8675;SDS011;4375;52.486;13.424;2022-10-16T05:26:57;14.40;;;2.67;;
8675;SDS011;4375;52.486;13.424;2022-10-16T05:29:23;15.37;;;3.27;;
8675;SDS011;4375;52.486;13.424;2022-10-16T05:31:52;16.50;;;3.40;;
8675;SDS011;4375;52.486;13.424;2022-10-16T05:34:18;14.33;;;2.63;;
8675;SDS011;4375;52.486;13.424;2022-10-16T05:36:44;15.30;;;3.20;;
8675;SDS011;4375;52.486;13.424;2022-10-16T05:39:11;15.30;;;3.67;;
8675;SDS011;4375;52.486;13.424;2022-10-16T05:41:36;16.13;;;3.57;;
8675;SDS011;4375;52.486;13.424;2022-10-16T05:44:05;16.63;;;3.83;;
8675;SDS011;4375;52.486;13.424;2022-10-16T05:46:31;16.10;;;3.60;;
8675;SDS011;4375;52.486;13.424;2022-10-16T05:48:57;15.20;;;3.57;;
8675;SDS011;4375;52.486;13.424;2022-10-16T05:51:23;15.00;;;3.13;;
8675;SDS011;4375;52.486;13.424;2022-10-16T05:53:49;17.13;;;3.47;;
8675;SDS011;4375;52.486;13.424;2022-10-16T05:56:14;15.73;;;3.33;;
8675;SDS011;4375;52.486;13.424;2022-10-16T05:58:40;14.13;;;2.70;;
8675;SDS011;4375;52.486;13.424;2022-10-16T06:01:16;15.80;;;3.40;;
8675;SDS011;4375;52.486;13.424;2022-10-16T06:03:43;17.00;;;2.70;;
8675;SDS011;4375;52.486;13.424;2022-10-16T06:06:10;14.97;;;3.07;;
8675;SDS011;4375;52.486;13.424;2022-10-16T06:08:37;20.47;;;3.63;;
8675;SDS011;4375;52.486;13.424;2022-10-16T06:11:04;16.43;;;3.30;;
8675;SDS011;4375;52.486;13.424;2022-10-16T06:13:31;16.70;;;3.70;;
8675;SDS011;4375;52.486;13.424;2022-10-16T06:15:58;15.77;;;3.67;;
8675;SDS011;4375;52.486;13.424;2022-10-16T06:18:25;15.30;;;3.40;;
8675;SDS011;4375;52.486;13.424;2022-10-16T06:20:51;14.60;;;3.00;;
8675;SDS011;4375;52.486;13.424;2022-10-16T06:23:17;14.77;;;3.10;;
8675;SDS011;4375;52.486;13.424;2022-10-16T06:25:43;17.33;;;2.70;;
8675;SDS011;4375;52.486;13.424;2022-10-16T06:28:09;16.17;;;3.03;;
8675;SDS011;4375;52.486;13.424;2022-10-16T06:30:38;15.70;;;2.93;;
8675;SDS011;4375;52.486;13.424;2022-10-16T06:33:04;16.17;;;3.30;;
8675;SDS011;4375;52.486;13.424;2022-10-16T06:35:30;16.70;;;3.13;;
8675;SDS011;4375;52.486;13.424;2022-10-16T06:37:57;16.60;;;3.73;;
8675;SDS011;4375;52.486;13.424;2022-10-16T06:40:22;14.77;;;3.00;;
8675;SDS011;4375;52.486;13.424;2022-10-16T06:42:48;17.60;;;3.40;;
8675;SDS011;4375;52.486;13.424;2022-10-16T06:45:14;15.80;;;3.00;;
8675;SDS011;4375;52.486;13.424;2022-10-16T06:47:39;14.43;;;2.80;;
8675;SDS011;4375;52.486;13.424;2022-10-16T06:50:05;14.60;;;3.03;;
8675;SDS011;4375;52.486;13.424;2022-10-16T06:52:32;14.00;;;2.63;;
8675;SDS011;4375;52.486;13.424;2022-10-16T06:54:58;15.93;;;3.00;;
8675;SDS011;4375;52.486;13.424;2022-10-16T06:57:24;15.20;;;2.30;;
8675;SDS011;4375;52.486;13.424;2022-10-16T06:59:50;14.30;;;2.60;;
8675;SDS011;4375;52.486;13.424;2022-10-16T07:02:16;14.60;;;2.73;;
8675;SDS011;4375;52.486;13.424;2022-10-16T07:04:41;14.37;;;2.30;;
8675;SDS011;4375;52.486;13.424;2022-10-16T07:07:07;18.50;;;3.00;;
8675;SDS011;4375;52.486;13.424;2022-10-16T07:09:32;16.80;;;2.60;;
8675;SDS011;4375;52.486;13.424;2022-10-16T07:11:58;15.30;;;3.10;;
8675;SDS011;4375;52.486;13.424;2022-10-16T07:14:23;17.17;;;3.10;;
8675;SDS011;4375;52.486;13.424;2022-10-16T07:16:49;14.33;;;2.57;;
8675;SDS011;4375;52.486;13.424;2022-10-16T07:19:15;14.47;;;2.40;;
8675;SDS011;4375;52.486;13.424;2022-10-16T07:21:43;20.87;;;2.60;;
8675;SDS011;4375;52.486;13.424;2022-10-16T07:24:13;13.67;;;2.00;;
8675;SDS011;4375;52.486;13.424;2022-10-16T07:26:40;14.30;;;2.30;;
8675;SDS011;4375;52.486;13.424;2022-10-16T07:29:18;14.10;;;2.40;;
8675;SDS011;4375;52.486;13.424;2022-10-16T07:31:45;14.40;;;2.57;;
8675;SDS011;4375;52.486;13.424;2022-10-16T07:34:11;14.30;;;2.10;;
8675;SDS011;4375;52.486;13.424;2022-10-16T07:36:39;13.90;;;1.80;;
8675;SDS011;4375;52.486;13.424;2022-10-16T07:39:04;14.50;;;2.43;;
8675;SDS011;4375;52.486;13.424;2022-10-16T07:41:31;15.63;;;2.63;;
8675;SDS011;4375;52.486;13.424;2022-10-16T07:43:57;14.67;;;2.53;;
8675;SDS011;4375;52.486;13.424;2022-10-16T07:46:25;14.10;;;2.20;;
8675;SDS011;4375;52.486;13.424;2022-10-16T07:48:51;14.77;;;2.33;;
8675;SDS011;4375;52.486;13.424;2022-10-16T07:51:21;14.90;;;2.00;;
8675;SDS011;4375;52.486;13.424;2022-10-16T07:53:48;20.27;;;2.20;;
8675;SDS011;4375;52.486;13.424;2022-10-16T07:56:14;16.00;;;2.27;;
8675;SDS011;4375;52.486;13.424;2022-10-16T07:58:40;14.80;;;2.30;;
8675;SDS011;4375;52.486;13.424;2022-10-16T08:01:07;14.43;;;2.30;;
8675;SDS011;4375;52.486;13.424;2022-10-16T08:03:34;13.63;;;1.80;;
8675;SDS011;4375;52.486;13.424;2022-10-16T08:06:00;16.40;;;2.50;;
8675;SDS011;4375;52.486;13.424;2022-10-16T08:08:27;14.83;;;1.97;;
8675;SDS011;4375;52.486;13.424;2022-10-16T08:10:53;27.87;;;2.13;;
8675;SDS011;4375;52.486;13.424;2022-10-16T08:13:19;13.50;;;1.80;;
8675;SDS011;4375;52.486;13.424;2022-10-16T08:15:45;14.70;;;2.00;;
8675;SDS011;4375;52.486;13.424;2022-10-16T08:18:11;16.40;;;1.90;;
8675;SDS011;4375;52.486;13.424;2022-10-16T08:20:38;13.90;;;2.00;;
8675;SDS011;4375;52.486;13.424;2022-10-16T08:23:05;14.53;;;2.30;;
8675;SDS011;4375;52.486;13.424;2022-10-16T08:25:33;14.30;;;2.30;;
8675;SDS011;4375;52.486;13.424;2022-10-16T08:28:00;14.40;;;2.10;;
8675;SDS011;4375;52.486;13.424;2022-10-16T08:30:25;16.27;;;2.37;;
8675;SDS011;4375;52.486;13.424;2022-10-16T08:32:51;15.50;;;2.00;;
8675;SDS011;4375;52.486;13.424;2022-10-16T08:35:17;15.10;;;1.83;;
8675;SDS011;4375;52.486;13.424;2022-10-16T08:37:43;16.37;;;1.80;;
8675;SDS011;4375;52.486;13.424;2022-10-16T08:40:51;14.80;;;2.10;;
8675;SDS011;4375;52.486;13.424;2022-10-16T08:48:41;15.10;;;1.80;;
8675;SDS011;4375;52.486;13.424;2022-10-16T08:51:20;16.50;;;2.03;;
8675;SDS011;4375;52.486;13.424;2022-10-16T08:56:22;14.53;;;1.73;;
8675;SDS011;4375;52.486;13.424;2022-10-16T08:58:48;14.10;;;1.50;;
8675;SDS011;4375;52.486;13.424;2022-10-16T09:01:16;13.37;;;1.60;;
8675;SDS011;4375;52.486;13.424;2022-10-16T09:06:33;14.20;;;1.90;;
8675;SDS011;4375;52.486;13.424;2022-10-16T09:17:20;16.07;;;2.10;;
8675;SDS011;4375;52.486;13.424;2022-10-16T09:19:53;14.10;;;1.67;;
8675;SDS011;4375;52.486;13.424;2022-10-16T09:22:32;14.50;;;1.87;;
8675;SDS011;4375;52.486;13.424;2022-10-16T09:25:04;14.50;;;1.50;;
8675;SDS011;4375;52.486;13.424;2022-10-16T09:27:39;15.30;;;1.80;;
8675;SDS011;4375;52.486;13.424;2022-10-16T09:30:12;14.00;;;1.80;;
8675;SDS011;4375;52.486;13.424;2022-10-16T09:32:39;13.70;;;1.60;;
8675;SDS011;4375;52.486;13.424;2022-10-16T09:35:11;16.60;;;1.80;;
8675;SDS011;4375;52.486;13.424;2022-10-16T09:37:40;14.93;;;1.87;;
8675;SDS011;4375;52.486;13.424;2022-10-16T09:40:12;17.70;;;1.83;;
8675;SDS011;4375;52.486;13.424;2022-10-16T09:42:39;14.63;;;2.07;;
8675;SDS011;4375;52.486;13.424;2022-10-16T09:45:05;13.43;;;1.43;;
8675;SDS011;4375;52.486;13.424;2022-10-16T09:47:31;13.67;;;1.60;;
8675;SDS011;4375;52.486;13.424;2022-10-16T09:50:03;13.53;;;1.40;;
8675;SDS011;4375;52.486;13.424;2022-10-16T09:52:44;14.00;;;1.57;;
8675;SDS011;4375;52.486;13.424;2022-10-16T09:55:14;13.40;;;1.80;;
8675;SDS011;4375;52.486;13.424;2022-10-16T09:57:48;14.53;;;1.93;;
8675;SDS011;4375;52.486;13.424;2022-10-16T10:00:15;14.93;;;3.20;;
8675;SDS011;4375;52.486;13.424;2022-10-16T10:02:42;14.40;;;2.20;;
8675;SDS011;4375;52.486;13.424;2022-10-16T10:05:20;13.37;;;1.50;;
8675;SDS011;4375;52.486;13.424;2022-10-16T10:07:55;21.00;;;2.53;;
8675;SDS011;4375;52.486;13.424;2022-10-16T10:10:23;13.83;;;1.90;;
8675;SDS011;4375;52.486;13.424;2022-10-16T10:12:55;13.83;;;2.00;;
8675;SDS011;4375;52.486;13.424;2022-10-16T10:15:21;14.00;;;1.80;;
8675;SDS011;4375;52.486;13.424;2022-10-16T10:17:55;13.60;;;1.60;;
8675;SDS011;4375;52.486;13.424;2022-10-16T10:22:59;15.97;;;1.57;;
8675;SDS011;4375;52.486;13.424;2022-10-16T10:25:36;14.87;;;1.90;;
8675;SDS011;4375;52.486;13.424;2022-10-16T10:31:06;13.73;;;1.87;;
8675;SDS011;4375;52.486;13.424;2022-10-16T10:34:02;14.13;;;1.80;;
8675;SDS011;4375;52.486;13.424;2022-10-16T10:36:40;13.60;;;1.40;;
8675;SDS011;4375;52.486;13.424;2022-10-16T10:39:08;14.97;;;1.73;;
8675;SDS011;4375;52.486;13.424;2022-10-16T10:50:22;14.20;;;2.00;;
8675;SDS011;4375;52.486;13.424;2022-10-16T10:55:54;14.00;;;1.37;;
8675;SDS011;4375;52.486;13.424;2022-10-16T10:58:34;14.40;;;1.30;;
8675;SDS011;4375;52.486;13.424;2022-10-16T11:06:52;15.10;;;1.63;;
8675;SDS011;4375;52.486;13.424;2022-10-16T11:09:27;13.47;;;1.40;;
8675;SDS011;4375;52.486;13.424;2022-10-16T11:11:59;13.17;;;1.27;;
8675;SDS011;4375;52.486;13.424;2022-10-16T11:14:30;14.33;;;1.73;;
8675;SDS011;4375;52.486;13.424;2022-10-16T11:17:11;13.27;;;1.30;;
8675;SDS011;4375;52.486;13.424;2022-10-16T11:25:18;13.37;;;1.30;;
8675;SDS011;4375;52.486;13.424;2022-10-16T11:27:52;13.70;;;1.50;;
8675;SDS011;4375;52.486;13.424;2022-10-16T11:30:29;13.83;;;1.73;;
8675;SDS011;4375;52.486;13.424;2022-10-16T11:38:12;16.20;;;1.40;;
8675;SDS011;4375;52.486;13.424;2022-10-16T11:40:53;14.87;;;1.53;;
8675;SDS011;4375;52.486;13.424;2022-10-16T11:43:32;13.33;;;1.33;;
8675;SDS011;4375;52.486;13.424;2022-10-16T11:46:13;17.13;;;1.83;;
8675;SDS011;4375;52.486;13.424;2022-10-16T11:48:45;13.40;;;1.50;;
8675;SDS011;4375;52.486;13.424;2022-10-16T11:51:29;13.47;;;1.60;;
8675;SDS011;4375;52.486;13.424;2022-10-16T11:56:27;13.17;;;1.20;;
8675;SDS011;4375;52.486;13.424;2022-10-16T12:01:33;14.60;;;1.20;;
8675;SDS011;4375;52.486;13.424;2022-10-16T12:04:17;14.67;;;1.40;;
8675;SDS011;4375;52.486;13.424;2022-10-16T12:07:21;13.57;;;1.50;;
8675;SDS011;4375;52.486;13.424;2022-10-16T12:09:50;13.07;;;1.00;;
8675;SDS011;4375;52.486;13.424;2022-10-16T12:15:17;12.90;;;1.13;;
8675;SDS011;4375;52.486;13.424;2022-10-16T12:17:46;13.03;;;1.40;;
8675;SDS011;4375;52.486;13.424;2022-10-16T12:22:49;13.90;;;1.20;;
8675;SDS011;4375;52.486;13.424;2022-10-16T12:25:23;16.13;;;1.60;;
8675;SDS011;4375;52.486;13.424;2022-10-16T12:28:20;13.70;;;1.37;;
8675;SDS011;4375;52.486;13.424;2022-10-16T12:31:00;15.70;;;1.57;;
8675;SDS011;4375;52.486;13.424;2022-10-16T12:33:29;14.43;;;1.30;;
8675;SDS011;4375;52.486;13.424;2022-10-16T12:35:57;13.20;;;1.20;;
8675;SDS011;4375;52.486;13.424;2022-10-16T12:41:01;14.07;;;1.63;;
8675;SDS011;4375;52.486;13.424;2022-10-16T12:43:34;17.63;;;1.50;;
8675;SDS011;4375;52.486;13.424;2022-10-16T12:48:40;13.43;;;1.30;;
8675;SDS011;4375;52.486;13.424;2022-10-16T12:54:02;13.17;;;0.97;;
8675;SDS011;4375;52.486;13.424;2022-10-16T12:59:19;13.37;;;1.20;;
8675;SDS011;4375;52.486;13.424;2022-10-16T13:07:17;14.60;;;1.17;;
8675;SDS011;4375;52.486;13.424;2022-10-16T13:10:11;13.17;;;1.10;;
8675;SDS011;4375;52.486;13.424;2022-10-16T13:18:41;13.80;;;1.27;;
8675;SDS011;4375;52.486;13.424;2022-10-16T13:21:20;16.90;;;1.30;;
8675;SDS011;4375;52.486;13.424;2022-10-16T13:23:52;13.53;;;1.30;;
8675;SDS011;4375;52.486;13.424;2022-10-16T13:26:33;14.47;;;1.07;;
8675;SDS011;4375;52.486;13.424;2022-10-16T13:29:08;15.80;;;1.13;;
8675;SDS011;4375;52.486;13.424;2022-10-16T13:31:36;13.57;;;1.10;;
8675;SDS011;4375;52.486;13.424;2022-10-16T13:34:03;13.27;;;1.00;;
8675;SDS011;4375;52.486;13.424;2022-10-16T13:36:35;17.33;;;1.00;;
8675;SDS011;4375;52.486;13.424;2022-10-16T13:39:27;19.13;;;1.30;;
8675;SDS011;4375;52.486;13.424;2022-10-16T13:41:58;14.87;;;1.40;;
8675;SDS011;4375;52.486;13.424;2022-10-16T13:44:33;18.80;;;1.60;;
8675;SDS011;4375;52.486;13.424;2022-10-16T13:47:04;13.47;;;1.13;;
8675;SDS011;4375;52.486;13.424;2022-10-16T13:49:30;13.90;;;1.20;;
8675;SDS011;4375;52.486;13.424;2022-10-16T13:51:57;14.10;;;1.70;;
8675;SDS011;4375;52.486;13.424;2022-10-16T13:54:24;13.33;;;1.23;;
8675;SDS011;4375;52.486;13.424;2022-10-16T13:56:51;13.47;;;1.10;;
8675;SDS011;4375;52.486;13.424;2022-10-16T14:01:49;14.00;;;1.10;;
8675;SDS011;4375;52.486;13.424;2022-10-16T14:04:16;13.53;;;1.37;;
8675;SDS011;4375;52.486;13.424;2022-10-16T14:06:45;13.70;;;1.23;;
8675;SDS011;4375;52.486;13.424;2022-10-16T14:12:00;13.70;;;1.40;;
8675;SDS011;4375;52.486;13.424;2022-10-16T14:14:31;13.90;;;1.30;;
8675;SDS011;4375;52.486;13.424;2022-10-16T14:17:05;13.90;;;1.47;;
8675;SDS011;4375;52.486;13.424;2022-10-16T14:19:31;17.50;;;1.80;;
8675;SDS011;4375;52.486;13.424;2022-10-16T14:21:57;13.50;;;1.40;;
8675;SDS011;4375;52.486;13.424;2022-10-16T14:24:34;17.63;;;1.60;;
8675;SDS011;4375;52.486;13.424;2022-10-16T14:27:00;15.03;;;1.90;;
8675;SDS011;4375;52.486;13.424;2022-10-16T14:29:27;13.77;;;1.57;;
8675;SDS011;4375;52.486;13.424;2022-10-16T14:32:01;14.97;;;1.73;;
8675;SDS011;4375;52.486;13.424;2022-10-16T14:37:01;17.70;;;1.67;;
8675;SDS011;4375;52.486;13.424;2022-10-16T14:39:38;13.70;;;1.40;;
8675;SDS011;4375;52.486;13.424;2022-10-16T14:42:11;13.43;;;1.27;;
8675;SDS011;4375;52.486;13.424;2022-10-16T14:44:41;13.60;;;1.70;;
8675;SDS011;4375;52.486;13.424;2022-10-16T14:47:13;13.67;;;1.30;;
8675;SDS011;4375;52.486;13.424;2022-10-16T14:49:42;13.43;;;1.47;;
8675;SDS011;4375;52.486;13.424;2022-10-16T14:52:11;15.10;;;1.63;;
8675;SDS011;4375;52.486;13.424;2022-10-16T14:54:37;15.03;;;1.27;;
8675;SDS011;4375;52.486;13.424;2022-10-16T14:57:03;15.87;;;1.70;;
8675;SDS011;4375;52.486;13.424;2022-10-16T14:59:36;14.10;;;1.53;;
8675;SDS011;4375;52.486;13.424;2022-10-16T15:04:52;15.37;;;1.80;;
8675;SDS011;4375;52.486;13.424;2022-10-16T15:07:18;14.00;;;1.27;;
8675;SDS011;4375;52.486;13.424;2022-10-16T15:09:44;15.67;;;1.97;;
8675;SDS011;4375;52.486;13.424;2022-10-16T15:12:10;13.63;;;1.30;;
8675;SDS011;4375;52.486;13.424;2022-10-16T15:14:35;17.10;;;3.50;;
8675;SDS011;4375;52.486;13.424;2022-10-16T15:17:02;16.57;;;3.10;;
8675;SDS011;4375;52.486;13.424;2022-10-16T15:19:27;14.37;;;2.20;;
8675;SDS011;4375;52.486;13.424;2022-10-16T15:21:53;15.50;;;2.60;;
8675;SDS011;4375;52.486;13.424;2022-10-16T15:24:19;14.33;;;2.10;;
8675;SDS011;4375;52.486;13.424;2022-10-16T15:26:44;16.27;;;2.23;;
8675;SDS011;4375;52.486;13.424;2022-10-16T15:29:14;16.60;;;2.43;;
8675;SDS011;4375;52.486;13.424;2022-10-16T15:31:39;17.10;;;2.27;;
8675;SDS011;4375;52.486;13.424;2022-10-16T15:34:08;15.63;;;1.90;;
8675;SDS011;4375;52.486;13.424;2022-10-16T15:36:36;14.00;;;1.80;;
8675;SDS011;4375;52.486;13.424;2022-10-16T15:39:03;14.60;;;2.10;;
8675;SDS011;4375;52.486;13.424;2022-10-16T15:41:30;17.87;;;4.77;;
8675;SDS011;4375;52.486;13.424;2022-10-16T15:43:56;21.67;;;6.93;;
8675;SDS011;4375;52.486;13.424;2022-10-16T15:46:22;20.47;;;6.20;;
8675;SDS011;4375;52.486;13.424;2022-10-16T15:48:49;30.63;;;13.13;;
8675;SDS011;4375;52.486;13.424;2022-10-16T15:51:16;16.10;;;3.27;;
8675;SDS011;4375;52.486;13.424;2022-10-16T15:53:42;17.37;;;2.53;;
8675;SDS011;4375;52.486;13.424;2022-10-16T15:56:11;15.17;;;2.20;;
8675;SDS011;4375;52.486;13.424;2022-10-16T15:58:37;17.60;;;2.67;;
8675;SDS011;4375;52.486;13.424;2022-10-16T16:01:03;16.63;;;1.77;;
8675;SDS011;4375;52.486;13.424;2022-10-16T16:03:29;15.90;;;2.70;;
8675;SDS011;4375;52.486;13.424;2022-10-16T16:05:55;15.13;;;2.00;;
8675;SDS011;4375;52.486;13.424;2022-10-16T16:08:23;16.63;;;1.90;;
8675;SDS011;4375;52.486;13.424;2022-10-16T16:11:08;13.67;;;1.60;;
8675;SDS011;4375;52.486;13.424;2022-10-16T16:13:34;14.97;;;2.43;;
8675;SDS011;4375;52.486;13.424;2022-10-16T16:16:04;14.57;;;2.47;;
8675;SDS011;4375;52.486;13.424;2022-10-16T16:18:31;18.20;;;2.80;;
8675;SDS011;4375;52.486;13.424;2022-10-16T16:20:57;17.10;;;2.30;;
8675;SDS011;4375;52.486;13.424;2022-10-16T16:23:23;15.40;;;2.10;;
8675;SDS011;4375;52.486;13.424;2022-10-16T16:26:30;13.97;;;1.97;;
8675;SDS011;4375;52.486;13.424;2022-10-16T16:28:41;15.00;;;2.10;;
8675;SDS011;4375;52.486;13.424;2022-10-16T16:31:07;16.63;;;2.77;;
8675;SDS011;4375;52.486;13.424;2022-10-16T16:33:34;16.87;;;2.93;;
8675;SDS011;4375;52.486;13.424;2022-10-16T16:36:00;16.30;;;2.60;;
8675;SDS011;4375;52.486;13.424;2022-10-16T16:38:28;14.67;;;2.30;;
8675;SDS011;4375;52.486;13.424;2022-10-16T16:40:54;16.00;;;2.37;;
8675;SDS011;4375;52.486;13.424;2022-10-16T16:43:24;15.30;;;2.70;;
8675;SDS011;4375;52.486;13.424;2022-10-16T16:45:50;16.20;;;2.43;;
8675;SDS011;4375;52.486;13.424;2022-10-16T16:48:16;20.00;;;3.03;;
8675;SDS011;4375;52.486;13.424;2022-10-16T16:50:42;19.20;;;2.90;;